Antoine, Arkansas
Current Conditions -  °F | °C
As of 9:56 AM on Friday 24 Oct 2014 (Local Time) from KADF Reporting Station
Clear Clear  
Wind Chill: 15°   Ceiling: Unl
Heat Index: 15°   Visibility: 10mi
Dew Point: 12°   Wind: 0mph
Humidity: 83%   Direction: NA
Pressure: 30.2"   Gusts: NA
Location:  34.04°N, 93.42°W
Report Text: KADF 241456Z AUTO 00000KT 10SM CLR 15/12 A3020 RMK AO2 53011 T01500122 SLP241
Loading
Personal Weather Stations






























Interactive Weather Map
Tropical Storm Tracking
New forecast layout! Learn more

10-Day Weather Forecast

Advertisements
Track Severe Weather on mobile